Terminal Aerodrome Forecast
Issued by NWS

Home | Current Version | Previous Version | Text Only | Print | Product List | Glossary On
Versions: 1 2 3 4 5 6 7 8 9 10 11 12 13 14 15 16 17 18 19 20 21 22 23 24 25
000
FTUS42 KMHX 050540
TAFPGV
TAF
KPGV 050540Z 0506/0606 20008KT 6SM BR SCT006 SCT250
     FM051500 01013G20KT 5SM -SHRA OVC007
     FM051800 01015G25KT 3SM -RA OVC005
     FM052200 01014G22KT 2SM -FZRAPL OVC004
      AMD LTD TO CLD VIS AND WIND=

USA.gov is the U.S. government's official web portal to all federal, state and local government web resources and services.